Time;durP1;ratioP1;P1;durP2;ratioP2;P2;SDS_P1;SDS_P2;PMS_P1;PMS_P2;Temp;Humidity;BMP_temperature;BMP_pressure;BME280_temperature;BME280_humidity;BME280_pressure;Samples;Min_cycle;Max_cycle;Signal;HPM_P1;HPM_P2
2022/05/24 00:00:53;;;;;;;21.90;16.03;;;;;;;13.93;100.00;65638.47;5114817;28;20247;-68
2022/05/24 00:03:20;;;;;;;17.83;16.00;;;;;;;13.93;100.00;65640.50;5114816;28;20215;-68
2022/05/24 00:05:48;;;;;;;23.37;17.90;;;;;;;13.90;100.00;65642.94;5114668;28;20313;-68
2022/05/24 00:08:15;;;;;;;25.57;17.60;;;;;;;13.91;100.00;65638.28;5114679;28;20274;-68
2022/05/24 00:10:46;;;;;;;21.63;18.20;;;;;;;13.91;100.00;65636.22;5096572;28;20216;-68
2022/05/24 00:13:13;;;;;;;23.40;18.40;;;;;;;13.93;100.00;65641.09;5114619;28;20219;-68
2022/05/24 00:15:40;;;;;;;27.07;19.13;;;;;;;13.96;100.00;65641.78;5114584;28;20703;-68
2022/05/24 00:18:14;;;;;;;24.80;18.93;;;;;;;13.93;100.00;65643.13;5114491;28;20223;-68
2022/05/24 00:20:42;;;;;;;35.33;20.27;;;;;;;;;;5114685;28;20204;-68
2022/05/24 00:23:09;;;;;;;25.73;18.97;;;;;;;13.89;100.00;65634.00;5114744;28;20260;-68
2022/05/24 00:25:39;;;;;;;26.27;19.43;;;;;;;13.93;100.00;65641.09;5115133;28;20651;-68
2022/05/24 00:28:06;;;;;;;24.33;19.23;;;;;;;13.98;100.00;65646.06;5114642;28;20219;-68
2022/05/24 00:30:33;;;;;;;28.80;18.40;;;;;;;14.04;100.00;65652.75;5114250;28;20244;-68
2022/05/24 00:33:00;;;;;;;21.70;17.23;;;;;;;14.07;100.00;65658.69;5114268;28;20186;-68
2022/05/24 00:35:26;;;;;;;21.63;17.53;;;;;;;14.12;100.00;65664.25;5114171;28;20222;-68
2022/05/24 00:37:53;;;;;;;25.17;17.67;;;;;;;14.03;100.00;65652.19;5114473;28;20234;-68
2022/05/24 00:40:33;;;;;;;25.67;17.90;;;;;;;14.09;100.00;65657.75;5114080;28;20244;-68
2022/05/24 00:43:05;;;;;;;17.60;15.73;;;;;;;14.08;100.00;65654.59;5114397;28;20204;-68
2022/05/24 00:45:39;;;;;;;19.20;17.37;;;;;;;14.13;100.00;65662.75;5114281;28;20189;-68
2022/05/24 00:48:13;;;;;;;20.37;16.97;;;;;;;14.25;100.00;65675.53;5114343;28;20177;-68
2022/05/24 00:50:44;;;;;;;19.20;16.57;;;;;;;14.28;100.00;65676.25;5113864;28;20241;-68
2022/05/24 00:53:25;;;;;;;16.40;14.70;;;;;;;14.23;100.00;65670.72;5114268;28;20181;-68
2022/05/24 00:56:06;;;;;;;16.63;15.13;;;;;;;14.24;100.00;65671.81;5114206;28;20157;-68
2022/05/24 00:58:48;;;;;;;21.07;17.27;;;;;;;14.26;100.00;65676.66;5114469;28;20256;-68
2022/05/24 01:01:41;;;;;;;22.57;17.73;;;;;;;14.35;100.00;65686.66;5114161;28;20606;-68
2022/05/24 01:04:11;;;;;;;19.23;16.20;;;;;;;14.32;100.00;65680.72;5113743;28;20542;-68
2022/05/24 01:06:38;;;;;;;22.37;16.57;;;;;;;14.32;100.00;65680.72;5114350;28;20201;-68
2022/05/24 01:09:10;;;;;;;18.57;16.37;;;;;;;14.25;100.00;65676.09;5113692;28;20205;-69
2022/05/24 01:11:42;;;;;;;16.67;15.20;;;;;;;14.27;100.00;65682.97;5114050;28;20262;-69
2022/05/24 01:14:13;;;;;;;19.17;15.93;;;;;;;14.25;100.00;65680.75;5113749;28;20194;-69
2022/05/24 01:16:41;;;;;;;20.17;16.30;;;;;;;14.25;100.00;65673.47;5113676;28;20165;-68
2022/05/24 01:19:13;;;;;;;20.27;17.70;;;;;;;14.24;100.00;65671.81;5113813;28;20205;-69
2022/05/24 01:21:40;;;;;;;17.20;15.47;;;;;;;;;;5116146;28;20200;-68
2022/05/24 01:24:20;;;;;;;17.20;15.43;;;;;;;;;;5118341;28;20193;-68
2022/05/24 01:26:56;;;;;;;17.80;15.50;;;;;;;;;;5118196;28;20196;-68
2022/05/24 01:29:25;;;;;;;16.03;14.57;;;;;;;14.12;100.00;65661.09;5118064;28;20224;-68
2022/05/24 01:37:27;;;;;;;17.13;15.23;;;;;;;14.05;100.00;65656.47;5117887;28;20193;-68
2022/05/24 01:39:57;;;;;;;16.27;14.47;;;;;;;14.13;100.00;65659.59;5117851;28;20240;-69
2022/05/24 01:42:24;;;;;;;14.30;12.80;;;;;;;14.17;100.00;65666.66;5118132;28;20250;-69
2022/05/24 01:45:12;;;;;;;18.23;15.00;;;;;;;14.10;100.00;65659.41;5117389;28;20244;-69
2022/05/24 01:47:42;;;;;;;19.30;14.57;;;;;;;14.21;100.00;65668.47;5117463;28;20205;-69
2022/05/24 01:50:13;;;;;;;16.47;14.87;;;;;;;14.15;100.00;65661.81;5117479;28;20209;-69
2022/05/24 01:52:47;;;;;;;19.03;15.00;;;;;;;14.09;100.00;65657.75;5117373;28;20220;-69
2022/05/24 01:55:19;;;;;;;15.67;14.40;;;;;;;14.11;100.00;65663.13;5117377;28;20172;-69
2022/05/24 01:57:51;;;;;;;17.73;14.93;;;;;;;14.05;100.00;65659.63;5117593;28;20204;-69
2022/05/24 02:00:17;;;;;;;15.60;14.10;;;;;;;14.13;100.00;65667.41;5117215;28;20278;-69
2022/05/24 02:02:45;;;;;;;15.47;13.93;;;;;;;14.14;100.00;65663.84;5117433;28;20222;-69
2022/05/24 02:05:13;;;;;;;15.80;14.33;;;;;;;14.14;100.00;65665.91;5117070;28;20209;-69
2022/05/24 02:07:40;;;;;;;16.13;13.27;;;;;;;14.14;100.00;65663.31;5117370;28;20219;-68
2022/05/24 02:10:07;;;;;;;16.70;13.83;;;;;;;;;;5116961;28;20274;-68
2022/05/24 02:12:38;;;;;;;16.43;14.80;;;;;;;;;;5098904;28;20224;-68
2022/05/24 02:15:06;;;;;;;16.83;13.83;;;;;;;14.08;100.00;65656.66;5116947;28;20211;-68
2022/05/24 02:17:39;;;;;;;17.37;14.93;;;;;;;;;;5117172;28;20243;-68
2022/05/24 02:20:06;;;;;;;16.20;14.00;;;;;;;;;;5117071;28;20233;-69
2022/05/24 02:22:32;;;;;;;16.43;14.40;;;;;;;14.08;100.00;65654.03;5116796;28;20254;-69
2022/05/24 02:25:06;;;;;;;18.47;15.53;;;;;;;;;;5116659;28;20205;-68
2022/05/24 02:27:40;;;;;;;16.67;14.37;;;;;;;14.07;100.00;65660.75;5117018;28;20261;-68
2022/05/24 02:30:06;;;;;;;20.50;14.77;;;;;;;14.05;100.00;65653.84;5116729;28;20236;-68
2022/05/24 02:32:33;;;;;;;17.43;15.67;;;;;;;;;;5115461;28;20274;-68
2022/05/24 02:34:59;;;;;;;17.30;15.27;;;;;;;14.08;100.00;65661.88;5116506;28;20268;-68
2022/05/24 02:37:28;;;;;;;21.80;14.97;;;;;;;14.02;100.00;65650.53;5116503;28;20227;-68
2022/05/24 02:42:40;;;;;;;20.37;15.73;;;;;;;;;;5116442;28;20196;-68
2022/05/24 02:45:07;;;;;;;15.83;14.43;;;;;;;14.01;100.00;65654.63;5116534;28;20230;-68
2022/05/24 02:47:33;;;;;;;14.97;13.80;;;;;;;14.07;100.00;65652.91;5116332;28;20215;-68
2022/05/24 02:50:00;;;;;;;14.90;13.67;;;;;;;;;;5116119;28;20248;-68
2022/05/24 02:52:26;;;;;;;14.93;13.47;;;;;;;14.03;100.00;65651.63;5116107;28;20189;-68
2022/05/24 02:54:53;;;;;;;15.37;13.97;;;;;;;14.02;100.00;65640.66;5116119;28;20209;-68
2022/05/24 02:57:19;;;;;;;19.40;15.27;;;;;;;;;;5116102;28;20687;-68
2022/05/24 02:59:45;;;;;;;14.30;13.10;;;;;;;14.02;100.00;65647.91;5116014;28;20237;-68
2022/05/24 03:02:12;;;;;;;14.00;12.70;;;;;;;14.09;100.00;65655.69;5116575;28;20224;-68
2022/05/24 03:04:38;;;;;;;14.13;12.73;;;;;;;14.06;100.00;65660.19;5115867;28;20193;-68
2022/05/24 03:09:49;;;;;;;16.30;14.70;;;;;;;14.06;100.00;65665.41;5116087;28;20225;-68
2022/05/24 03:15:01;;;;;;;18.03;15.00;;;;;;;13.96;100.00;65644.41;5116358;28;20559;-68
2022/05/24 03:17:30;;;;;;;18.63;15.17;;;;;;;13.92;100.00;65639.94;5115731;28;20663;-68
2022/05/24 03:19:57;;;;;;;21.07;15.40;;;;;;;13.85;100.00;65637.38;5115614;28;20240;-68
2022/05/24 03:22:23;;;;;;;19.07;16.77;;;;;;;;;;5115761;28;20212;-68
2022/05/24 03:24:50;;;;;;;22.90;16.27;;;;;;;13.86;100.00;65633.31;5115879;28;20216;-68
2022/05/24 03:27:17;;;;;;;19.37;15.30;;;;;;;13.75;100.00;65618.44;5115561;28;20272;-68
2022/05/24 03:29:45;;;;;;;19.83;12.80;;;;;;;13.69;100.00;65614.94;5115768;28;20233;-67
2022/05/24 03:32:12;;;;;;;12.80;11.97;;;;;;;;;;5115964;28;20220;-67
2022/05/24 03:34:39;;;;;;;13.50;11.53;;;;;;;13.69;100.00;65619.59;5115593;28;20192;-67
2022/05/24 03:37:06;;;;;;;11.50;10.33;;;;;;;13.61;100.00;65605.50;5115296;28;20216;-67
2022/05/24 03:39:33;;;;;;;10.63;9.50;;;;;;;13.61;100.00;65605.50;5115500;28;20247;-67
2022/05/24 03:42:00;;;;;;;12.80;9.07;;;;;;;13.42;100.00;65585.50;5115279;28;20205;-67
2022/05/24 03:44:27;;;;;;;9.67;8.73;;;;;;;13.29;100.00;65575.69;5115009;28;20290;-67
2022/05/24 03:46:56;;;;;;;9.13;8.63;;;;;;;13.34;100.00;65589.63;5115054;28;20197;-67
2022/05/24 03:49:22;;;;;;;10.17;8.50;;;;;;;13.29;100.00;65576.28;5115053;28;20221;-68
2022/05/24 03:51:49;;;;;;;10.03;9.20;;;;;;;13.21;100.00;65559.56;5115043;28;20256;-67
2022/05/24 03:54:17;;;;;;;9.57;8.63;;;;;;;13.11;100.00;65543.78;5115342;28;20204;-67
2022/05/24 03:58:00;;;;;;;9.33;8.57;;;;;;;13.15;100.00;65553.44;5114947;28;20192;-68
2022/05/24 03:59:31;;;;;;;9.20;8.37;;;;;;;13.11;100.00;65548.44;5114860;28;20231;-68
2022/05/24 04:01:58;;;;;;;10.40;9.50;;;;;;;13.12;100.00;65550.09;5096530;28;20655;-68
2022/05/24 04:04:24;;;;;;;10.33;8.90;;;;;;;13.13;100.00;65555.84;5115376;28;20220;-67
2022/05/24 04:06:50;;;;;;;13.37;9.30;;;;;;;13.06;100.00;65545.47;5114683;28;20283;-67
2022/05/24 04:09:17;;;;;;;10.80;8.27;;;;;;;13.15;100.00;65552.88;5114658;28;20224;-68
2022/05/24 04:11:43;;;;;;;8.80;7.73;;;;;;;13.11;100.00;65556.81;5114952;28;20189;-68
2022/05/24 04:14:10;;;;;;;8.40;8.00;;;;;;;13.19;100.00;65559.91;5114640;28;20589;-68
2022/05/24 04:16:36;;;;;;;16.27;8.60;;;;;;;13.19;100.00;65563.09;5114544;28;20222;-68
2022/05/24 04:19:03;;;;;;;9.27;8.37;;;;;;;13.17;100.00;65568.69;5114423;28;20246;-68
2022/05/24 04:21:29;;;;;;;8.77;7.93;;;;;;;13.26;100.00;65564.56;5114725;28;20212;-68
2022/05/24 04:23:56;;;;;;;8.10;7.37;;;;;;;13.24;100.00;65570.72;5114867;28;20246;-68
2022/05/24 04:26:22;;;;;;;8.50;7.80;;;;;;;13.31;100.00;65573.28;5114272;28;20248;-68
2022/05/24 04:28:48;;;;;;;8.60;8.30;;;;;;;13.20;100.00;65566.25;5114272;28;20193;-68
2022/05/24 04:31:15;;;;;;;9.23;7.93;;;;;;;13.19;100.00;65560.47;5114818;28;20223;-68
2022/05/24 04:33:42;;;;;;;7.57;6.97;;;;;;;13.20;100.00;65563.66;5114198;28;20196;-68
2022/05/24 04:36:08;;;;;;;8.40;6.73;;;;;;;13.21;100.00;65567.38;5114078;28;20659;-68
2022/05/24 04:38:35;;;;;;;7.63;6.67;;;;;;;13.28;100.00;65572.53;5114384;28;20193;-68
2022/05/24 04:43:47;;;;;;;7.63;7.30;;;;;;;13.25;100.00;65577.03;5114714;28;20585;-68
2022/05/24 04:46:13;;;;;;;7.20;6.77;;;;;;;13.17;100.00;65557.69;5114463;28;20237;-68
2022/05/24 04:48:40;;;;;;;7.73;7.10;;;;;;;13.26;100.00;65559.91;5114010;28;20212;-68
2022/05/24 04:51:06;;;;;;;10.50;7.60;;;;;;;13.29;100.00;65570.50;5113816;28;20259;-68
2022/05/24 04:53:33;;;;;;;6.90;6.53;;;;;;;13.35;100.00;65574.56;5113923;28;20184;-68
2022/05/24 04:56:03;;;;;;;10.60;6.87;;;;;;;13.26;100.00;65564.56;5113612;28;20165;-68
2022/05/24 04:58:30;;;;;;;7.90;7.60;;;;;;;13.38;100.00;65580.50;5114092;28;20581;-67
2022/05/24 05:00:56;;;;;;;10.47;6.33;;;;;;;13.32;100.00;65574.38;5113741;28;20209;-68
2022/05/24 05:03:23;;;;;;;8.60;7.77;;;;;;;13.25;100.00;65563.44;5095760;28;20208;-67
2022/05/24 05:05:51;;;;;;;7.30;6.57;;;;;;;13.08;100.00;65548.25;5113965;28;20216;-67
2022/05/24 05:08:19;;;;;;;8.17;7.43;;;;;;;13.15;100.00;65571.13;5113710;28;20193;-68
2022/05/24 05:10:45;;;;;;;6.37;6.17;;;;;;;13.06;100.00;65551.25;5113584;28;20243;-67
2022/05/24 05:13:15;;;;;;;7.03;6.67;;;;;;;12.96;100.00;65537.53;5113954;28;20659;-67
2022/05/24 05:15:42;;;;;;;7.93;6.70;;;;;;;12.93;100.00;65531.59;5113668;28;20173;-68
2022/05/24 05:18:10;;;;;;;7.13;6.63;;;;;;;;;;5113928;28;20227;-68
2022/05/24 05:20:41;;;;;;;11.63;7.40;;;;;;;13.00;100.00;65531.56;5113809;28;20251;-69
2022/05/24 05:23:14;;;;;;;7.20;6.97;;;;;;;13.00;100.00;65536.19;5114211;28;20173;-68
2022/05/24 05:25:42;;;;;;;7.73;7.13;;;;;;;13.00;100.00;65544.03;5113840;28;20227;-68
2022/05/24 05:28:09;;;;;;;12.40;7.13;;;;;;;13.02;100.00;65546.25;5113501;28;20223;-69
2022/05/24 05:33:21;;;;;;;7.47;6.77;;;;;;;13.01;100.00;65539.94;5113746;28;20584;-69
2022/05/24 05:35:49;;;;;;;7.03;6.70;;;;;;;12.99;100.00;65538.25;5113605;28;20269;-69
2022/05/24 05:38:16;;;;;;;11.37;7.20;;;;;;;13.13;100.00;65553.25;5113726;28;20213;-69
2022/05/24 05:40:43;;;;;;;7.27;6.53;;;;;;;12.95;100.00;65536.44;5113725;28;20236;-69
2022/05/24 05:43:11;;;;;;;6.10;5.80;;;;;;;12.85;100.00;65527.91;5113398;28;20188;-69
2022/05/24 05:45:37;;;;;;;6.90;6.43;;;;;;;12.83;100.00;65513.22;5113253;28;20292;-68
2022/05/24 05:48:04;;;;;;;7.37;6.83;;;;;;;12.84;100.00;65519.00;5113358;28;20186;-68
2022/05/24 05:50:31;;;;;;;8.77;5.93;;;;;;;12.82;100.00;65517.34;5113131;28;20232;-69
2022/05/24 05:52:57;;;;;;;6.37;6.17;;;;;;;12.88;100.00;65526.03;5113538;28;20191;-69
2022/05/24 05:55:27;;;;;;;6.03;5.57;;;;;;;13.01;100.00;65545.16;5113477;28;20192;-69
2022/05/24 05:57:53;;;;;;;11.10;5.13;;;;;;;12.92;100.00;65533.09;5113278;28;20224;-69
2022/05/24 06:00:20;;;;;;;6.57;5.10;;;;;;;12.94;100.00;65530.09;5113157;28;20243;-69
2022/05/24 06:02:46;;;;;;;6.70;6.17;;;;;;;12.83;100.00;65536.66;5113776;28;20615;-69
2022/05/24 06:05:14;;;;;;;6.27;5.87;;;;;;;12.72;100.00;65519.25;5113235;28;20212;-68
2022/05/24 06:07:40;;;;;;;10.63;5.53;;;;;;;;;;5115559;28;20211;-69
2022/05/24 06:10:07;;;;;;;6.97;5.80;;;;;;;;;;5116947;28;20207;-69
2022/05/24 06:12:34;;;;;;;6.63;6.07;;;;;;;12.78;100.00;65520.69;5117300;28;20667;-69
2022/05/24 06:15:00;;;;;;;5.03;4.87;;;;;;;12.67;100.00;65500.69;5116996;28;20230;-69
2022/05/24 06:17:28;;;;;;;5.37;5.13;;;;;;;12.62;100.00;65508.69;5117430;28;20184;-69
2022/05/24 06:19:58;;;;;;;5.90;4.63;;;;;;;12.57;100.00;65489.56;5116849;28;20209;-68
2022/05/24 06:22:24;;;;;;;5.10;5.00;;;;;;;12.59;100.00;65502.22;5116906;28;20597;-69
2022/05/24 06:24:51;;;;;;;5.67;4.90;;;;;;;12.58;100.00;65490.69;5116641;28;20187;-69
2022/05/24 06:27:21;;;;;;;4.27;4.27;;;;;;;;;;5116447;28;20735;-69
2022/05/24 06:29:47;;;;;;;8.57;5.17;;;;;;;12.52;100.00;65486.63;5117056;28;20283;-69
2022/05/24 06:32:14;;;;;;;5.37;4.77;;;;;;;12.48;100.00;65482.19;5116812;28;20201;-68
2022/05/24 06:34:40;;;;;;;7.13;5.17;;;;;;;12.57;100.00;65492.16;5116511;28;20577;-68
2022/05/24 06:37:08;;;;;;;5.67;4.27;;;;;;;12.43;100.00;65481.81;5116507;28;20184;-68
2022/05/24 06:39:34;;;;;;;4.20;3.97;;;;;;;;;;5116601;28;20344;-69
2022/05/24 06:42:01;;;;;;;6.60;4.47;;;;;;;12.44;100.00;65483.50;5116416;28;20223;-69
2022/05/24 06:44:28;;;;;;;4.83;4.63;;;;;;;12.34;100.00;65472.94;5116464;28;20181;-69
2022/05/24 06:46:54;;;;;;;6.00;5.80;;;;;;;;;;5116177;28;20197;-69
2022/05/24 06:49:21;;;;;;;5.23;5.07;;;;;;;;;;5116179;28;20234;-69
2022/05/24 06:51:47;;;;;;;4.77;4.47;;;;;;;12.23;100.00;65457.59;5116325;28;20189;-69
2022/05/24 06:54:14;;;;;;;4.43;4.23;;;;;;;12.26;100.00;65458.31;5116110;28;20235;-69
2022/05/24 06:56:40;;;;;;;4.23;4.03;;;;;;;12.22;100.00;65453.88;5116604;28;20189;-69
2022/05/24 07:04:38;;;;;;;4.60;3.87;;;;;;;12.10;100.00;65441.09;5116216;28;20165;-70
2022/05/24 07:07:05;;;;;;;3.63;3.27;;;;;;;12.07;100.00;65435.16;5115825;28;20564;-70
2022/05/24 07:09:33;;;;;;;3.10;3.00;;;;;;;12.14;100.00;65445.53;5115828;28;20262;-69
2022/05/24 07:12:00;;;;;;;4.23;3.83;;;;;;;;;;5115781;28;20189;-68
2022/05/24 07:14:27;;;;;;;3.97;3.20;;;;;;;11.94;100.00;65423.91;5116013;28;20191;-69
2022/05/24 07:16:54;;;;;;;3.57;3.40;;;;;;;11.88;100.00;65417.25;5116287;28;20222;-69
2022/05/24 07:19:21;;;;;;;3.53;3.30;;;;;;;11.94;100.00;65420.75;5115230;28;20242;-69
2022/05/24 07:21:47;;;;;;;3.37;3.20;;;;;;;11.92;100.00;65426.88;5116159;28;20194;-69
2022/05/24 07:24:14;;;;;;;3.33;3.30;;;;;;;12.01;100.00;65429.09;5116151;28;20181;-69
2022/05/24 07:26:42;;;;;;;3.30;3.20;;;;;;;12.02;100.00;65437.44;5115739;28;20201;-69
2022/05/24 07:29:20;;;;;;;3.20;3.10;;;;;;;11.99;100.00;65429.44;5115411;28;20280;-69
2022/05/24 07:31:46;;;;;;;3.67;3.47;;;;;;;11.94;100.00;65429.13;5115478;28;20185;-69
2022/05/24 07:34:13;;;;;;;3.37;3.13;;;;;;;11.97;100.00;65424.63;5115296;28;20209;-69
2022/05/24 07:36:40;;;;;;;3.60;3.57;;;;;;;12.03;100.00;65431.28;5115595;28;20185;-69
2022/05/24 07:39:06;;;;;;;4.03;3.87;;;;;;;;;;5115242;28;20556;-69
2022/05/24 07:47:24;;;;;;;4.47;4.07;;;;;;;;;;5115233;28;20236;-70
2022/05/24 07:49:51;;;;;;;4.60;3.77;;;;;;;12.34;100.00;65475.00;5114984;28;20212;-68
2022/05/24 07:52:17;;;;;;;4.10;3.90;;;;;;;12.40;100.00;65474.41;5115132;28;20234;-69
2022/05/24 07:54:44;;;;;;;4.03;3.60;;;;;;;12.46;100.00;65477.34;5114966;28;20189;-69
2022/05/24 07:57:11;;;;;;;5.33;4.30;;;;;;;;;;5115159;28;20181;-68
2022/05/24 07:59:39;;;;;;;3.67;3.37;;;;;;;12.57;100.00;65489.56;5115687;27;20598;-69
2022/05/24 08:02:06;;;;;;;4.63;4.40;;;;;;;12.60;100.00;65493.47;5115321;28;20710;-69
2022/05/24 08:04:34;;;;;;;4.97;4.57;;;;;;;12.61;100.00;65494.56;5114794;28;20651;-69
2022/05/24 08:07:01;;;;;;;5.43;5.23;;;;;;;12.56;100.00;65498.88;5114596;28;20200;-68
2022/05/24 08:09:27;;;;;;;4.97;4.77;;;;;;;12.72;100.00;65524.47;5114592;28;20211;-69
2022/05/24 08:11:54;;;;;;;5.77;5.33;;;;;;;12.79;100.00;65514.00;5115152;28;20193;-69
2022/05/24 08:14:20;;;;;;;16.03;7.07;;;;;;;;;;5114570;28;20184;-68
2022/05/24 08:16:47;;;;;;;6.53;6.07;;;;;;;12.94;100.00;65530.66;5114577;28;20183;-69
2022/05/24 08:19:13;;;;;;;6.30;5.87;;;;;;;12.88;100.00;65524.00;5114466;28;20635;-69
2022/05/24 08:21:40;;;;;;;6.23;5.87;;;;;;;13.05;100.00;65536.56;5114627;28;20299;-69
2022/05/24 08:24:07;;;;;;;5.90;5.67;;;;;;;13.21;100.00;65567.38;5114387;28;20189;-69
2022/05/24 08:26:33;;;;;;;6.53;5.97;;;;;;;13.36;100.00;65581.44;5114576;28;20295;-69
2022/05/24 08:29:00;;;;;;;5.93;5.73;;;;;;;;;;5114247;28;20190;-69
2022/05/24 08:31:26;;;;;;;6.10;5.80;;;;;;;13.33;100.00;65574.94;5113664;28;20607;-68
2022/05/24 08:33:53;;;;;;;7.87;5.87;;;;;;;;;;5114203;28;20249;-68
2022/05/24 08:36:19;;;;;;;6.30;6.10;;;;;;;13.45;100.00;65588.84;5114435;28;20613;-68
2022/05/24 08:38:46;;;;;;;7.23;7.03;;;;;;;13.39;100.00;65582.16;5114401;28;20241;-69
2022/05/24 08:41:20;;;;;;;6.03;5.73;;;;;;;;;;5114097;28;20700;-69
2022/05/24 08:50:05;;;;;;;5.47;5.10;;;;;;;13.74;100.00;65619.97;5113928;28;20220;-68
2022/05/24 08:52:43;;;;;;;3.83;3.83;;;;;;;13.68;96.68;65613.84;5113788;28;20591;-68
2022/05/24 08:55:10;;;;;;;3.70;3.60;;;;;;;;;;5114491;28;20173;-68
2022/05/24 08:57:48;;;;;;;3.97;3.73;;;;;;;13.87;99.40;65644.28;5114079;28;20186;-67
2022/05/24 09:00:22;;;;;;;3.73;3.73;;;;;;;13.83;96.76;65627.34;5114324;28;20802;-68
2022/05/24 09:02:49;;;;;;;4.17;4.10;;;;;;;;;;5114461;28;20169;-68
2022/05/24 09:05:29;;;;;;;6.27;4.47;;;;;;;13.49;95.64;65590.09;5113823;28;20212;-68
2022/05/24 09:08:17;;;;;;;4.40;4.30;;;;;;;13.51;96.28;65592.34;5114246;28;20586;-67
2022/05/24 09:11:01;;;;;;;3.60;3.47;;;;;;;13.59;97.74;65603.28;5113678;28;20205;-67
2022/05/24 09:13:52;;;;;;;4.83;3.97;;;;;;;13.59;97.06;65600.69;5113756;28;20169;-67
2022/05/24 09:16:19;;;;;;;6.20;5.63;;;;;;;13.58;97.86;65594.91;5113923;28;20247;-67
2022/05/24 09:18:57;;;;;;;4.30;4.20;;;;;;;;;;5113761;28;20185;-67
2022/05/24 09:21:31;;;;;;;7.33;4.47;;;;;;;;;;5113742;28;20587;-67
2022/05/24 09:24:31;;;;;;;6.63;4.33;;;;;;;14.03;100.00;65644.34;5114050;28;20161;-67
2022/05/24 09:27:18;;;;;;;3.70;3.57;;;;;;;14.16;99.74;65658.25;5058752;28;20224;-68
2022/05/24 09:30:05;;;;;;;3.40;3.23;;;;;;;14.34;95.82;65677.72;5113461;28;20258;-67
2022/05/24 09:32:39;;;;;;;11.63;3.33;;;;;;;;;;5113634;28;20166;-68
2022/05/24 09:35:23;;;;;;;8.13;3.43;;;;;;;14.25;95.03;65675.53;5113846;28;20169;-67
2022/05/24 09:38:16;;;;;;;3.40;3.30;;;;;;;14.21;94.07;65671.63;5114129;28;20165;-67
2022/05/24 09:40:48;;;;;;;2.83;2.83;;;;;;;;;;5113443;28;20205;-67
2022/05/24 09:43:35;;;;;;;3.13;3.03;;;;;;;;;;5116875;28;20570;-68
2022/05/24 09:46:08;;;;;;;3.53;3.43;;;;;;;;;;5117792;28;20188;-67
2022/05/24 09:48:40;;;;;;;3.07;2.97;;;;;;;14.24;94.88;65677.03;5117640;28;20213;-67
2022/05/24 09:51:12;;;;;;;3.00;2.90;;;;;;;14.08;93.41;65648.81;5117665;28;20333;-68
2022/05/24 09:53:51;;;;;;;3.93;3.57;;;;;;;13.96;92.83;65643.84;5117936;28;20189;-67
2022/05/24 09:56:26;;;;;;;3.10;2.93;;;;;;;;;;5117649;28;20181;-67
2022/05/24 09:58:57;;;;;;;3.50;3.30;;;;;;;;;;5117260;28;20297;-68
2022/05/24 10:01:37;;;;;;;3.40;3.20;;;;;;;13.78;94.62;65621.78;5117500;28;20165;-68
2022/05/24 10:04:12;;;;;;;3.47;3.37;;;;;;;;;;5117182;28;20177;-68
2022/05/24 10:06:41;;;;;;;3.90;3.50;;;;;;;13.94;93.96;65639.59;5117074;28;20250;-67
2022/05/24 10:09:20;;;;;;;3.30;2.93;;;;;;;14.09;95.67;65657.75;5117038;28;20679;-68
2022/05/24 10:11:52;;;;;;;3.13;3.00;;;;;;;;;;5117385;28;20169;-68
2022/05/24 10:14:21;;;;;;;10.23;2.90;;;;;;;;;;5116967;28;20258;-68
2022/05/24 10:17:03;;;;;;;5.30;2.93;;;;;;;;;;5116918;28;20214;-67
2022/05/24 10:20:02;;;;;;;3.00;2.90;;;;;;;;;;5116979;28;20213;-68
2022/05/24 10:22:31;;;;;;;5.90;3.77;;;;;;;15.19;86.99;65775.28;5061309;28;20209;-67
2022/05/24 10:25:20;;;;;;;2.23;2.23;;;;;;;15.02;86.18;65759.56;5117065;28;20180;-68
2022/05/24 10:27:55;;;;;;;4.30;2.87;;;;;;;;;;5116662;28;20200;-67
2022/05/24 10:30:29;;;;;;;6.83;2.70;;;;;;;15.03;89.92;65758.59;5116661;28;20265;-68
2022/05/24 10:39:34;;;;;;;2.50;2.37;;;;;;;;;;5116688;28;20630;-68
2022/05/24 10:42:03;;;;;;;3.23;2.47;;;;;;;;;;5116985;28;20185;-67
2022/05/24 10:44:41;;;;;;;1.87;1.77;;;;;;;15.61;78.67;65827.31;5116394;28;20190;-68
2022/05/24 10:47:10;;;;;;;2.83;1.70;;;;;;;;;;5116523;28;20189;-68
2022/05/24 10:49:50;;;;;;;2.83;2.43;;;;;;;15.49;78.73;65813.91;5097804;28;20217;-68
2022/05/24 10:52:34;;;;;;;1.53;1.53;;;;;;;15.37;79.22;65790.66;5116176;28;20184;-68
2022/05/24 10:55:17;;;;;;;1.93;1.90;;;;;;;;;;5115167;28;20191;-67
2022/05/24 10:57:53;;;;;;;1.73;1.73;;;;;;;;;;5116451;28;20182;-68
2022/05/24 11:00:41;;;;;;;2.27;2.13;;;;;;;15.64;80.93;65825.41;5116235;28;20213;-68
2022/05/24 11:03:11;;;;;;;11.23;2.60;;;;;;;;;;5115979;28;20209;-67
2022/05/24 11:05:37;;;;;;;3.07;1.80;;;;;;;;;;5116302;28;20173;-68
2022/05/24 11:08:22;;;;;;;2.47;2.37;;;;;;;;;;5116396;28;20263;-68
2022/05/24 11:10:50;;;;;;;2.13;2.10;;;;;;;15.37;81.11;65800.56;5115872;28;20254;-67
2022/05/24 11:13:26;;;;;;;2.27;2.13;;;;;;;15.47;84.15;65805.91;5115866;28;20185;-67
2022/05/24 11:15:57;;;;;;;2.97;2.50;;;;;;;15.52;81.53;65819.88;5115852;28;20165;-68
2022/05/24 11:18:38;;;;;;;4.37;2.03;;;;;;;;;;5116282;28;20170;-68
2022/05/24 11:21:10;;;;;;;4.07;1.63;;;;;;;;;;5115601;28;20205;-68
2022/05/24 11:23:46;;;;;;;1.90;1.90;;;;;;;;;;5115756;28;20220;-67
2022/05/24 11:26:32;;;;;;;1.93;1.87;;;;;;;;;;5116120;28;20177;-68
2022/05/24 11:29:13;;;;;;;2.47;2.47;;;;;;;15.56;76.19;65818.53;5115935;28;20197;-68
2022/05/24 11:31:46;;;;;;;9.83;2.13;;;;;;;;;;5115410;28;20530;-67
2022/05/24 11:34:18;;;;;;;2.40;2.20;;;;;;;;;;5115529;28;20230;-68
2022/05/24 11:36:48;;;;;;;2.83;2.83;;;;;;;15.61;78.72;65822.06;5115871;28;20173;-67
2022/05/24 11:39:26;;;;;;;1.77;1.77;;;;;;;15.98;79.91;65853.75;5115657;28;20258;-68
2022/05/24 11:42:18;;;;;;;9.00;2.17;;;;;;;15.92;74.87;65861.25;5115504;28;20226;-68
2022/05/24 11:44:45;;;;;;;1.90;1.87;;;;;;;15.67;76.56;65828.19;5115460;28;20170;-67
2022/05/24 11:47:30;;;;;;;4.87;4.57;;;;;;;;;;5115055;28;20205;-67
2022/05/24 11:49:59;;;;;;;1.90;1.90;;;;;;;15.55;76.08;65817.97;5115329;28;20209;-68
2022/05/24 11:52:57;;;;;;;1.80;1.80;;;;;;;15.61;77.14;65824.09;5114988;28;20250;-68
2022/05/24 11:55:46;;;;;;;5.77;2.00;;;;;;;15.78;76.86;65842.50;5114926;28;20180;-68
2022/05/24 11:58:18;;;;;;;2.00;2.00;;;;;;;15.80;74.65;65844.72;5115354;28;20166;-68
2022/05/24 12:01:02;;;;;;;2.13;1.83;;;;;;;15.81;74.29;65848.47;5115206;28;20674;-68
2022/05/24 12:09:26;;;;;;;2.27;2.20;;;;;;;15.60;75.80;65823.00;5114904;28;20640;-68
2022/05/24 12:12:29;;;;;;;5.37;2.50;;;;;;;15.72;75.11;65835.81;5115163;28;20631;-68
2022/05/24 12:15:17;;;;;;;5.00;2.23;;;;;;;15.90;73.98;65856.41;5114576;28;20184;-67
2022/05/24 12:17:46;;;;;;;2.13;2.03;;;;;;;15.77;73.28;65841.38;5114687;28;20620;-67
2022/05/24 12:20:34;;;;;;;8.40;2.60;;;;;;;15.69;72.33;65835.66;5114260;28;20209;-67
2022/05/24 12:23:04;;;;;;;4.53;2.20;;;;;;;15.67;74.39;65831.38;5114711;28;20618;-67
2022/05/24 12:26:05;;;;;;;2.13;2.10;;;;;;;15.65;74.40;65829.16;5114428;28;20169;-67
2022/05/24 12:28:37;;;;;;;1.90;1.90;;;;;;;15.77;73.77;65847.16;5114118;28;20221;-67
2022/05/24 12:31:12;;;;;;;1.67;1.63;;;;;;;15.74;74.56;65838.06;5114441;28;20205;-68
2022/05/24 12:33:53;;;;;;;2.37;2.27;;;;;;;15.86;75.97;65848.78;5114095;28;20177;-68
2022/05/24 12:36:39;;;;;;;3.13;2.93;;;;;;;15.84;74.52;65852.34;5114170;28;20227;-68
2022/05/24 12:39:26;;;;;;;1.97;1.93;;;;;;;15.90;75.00;65856.41;5114235;28;20240;-68
2022/05/24 12:41:59;;;;;;;1.77;1.77;;;;;;;15.81;74.18;65859.50;5096116;28;20254;-68
2022/05/24 12:44:32;;;;;;;2.30;2.30;;;;;;;15.81;76.70;65845.84;5114443;28;20556;-67
2022/05/24 12:47:04;;;;;;;2.00;2.00;;;;;;;15.69;77.76;65833.03;5114285;28;20165;-68
2022/05/24 12:49:32;;;;;;;2.30;2.30;;;;;;;;;;5114363;28;20225;-68
2022/05/24 12:52:22;;;;;;;3.00;2.77;;;;;;;15.83;78.62;65848.63;5113738;28;20208;-67
2022/05/24 12:54:52;;;;;;;2.43;2.33;;;;;;;15.85;78.01;65847.66;5114152;28;20234;-68
2022/05/24 12:57:23;;;;;;;9.63;2.30;;;;;;;15.91;76.69;65859.59;5114116;28;20268;-68
2022/05/24 12:59:55;;;;;;;2.77;2.67;;;;;;;;;;5095838;28;20282;-68
2022/05/24 13:02:27;;;;;;;2.47;2.37;;;;;;;16.48;78.05;65917.28;5113733;28;20197;-68
2022/05/24 13:05:15;;;;;;;2.10;2.10;;;;;;;16.69;75.18;65942.19;5114080;28;20169;-68